DLH2EP EDDF-EKCH
Flight info
| Callsign | DLH2EP |
|---|---|
| Flight time | 1h 5m |
| Altitude | 35000 |
| Route | MARUN3W/25C MARUN Y150 TOLGI DCT SAS DCT MAKEL N851 GESKA Z711 MONAK |
| Aircraft | A321/M-SDE3FGHIRWY/LB1 |
Departure
| Time | 2026-05-05 08:01 |
|---|---|
| Airport | Frankfurt Main Airport (EDDF) |
Arrival
| Time | 2026-05-05 09:07 |
|---|---|
| Airport | Copenhagen Kastrup Airport (EKCH) |
| Time | Latitude | Longitude | Altitude | Speed | Heading |
|---|---|---|---|---|---|
| 2026-05-05 07:30 | 50.04654 | 8.56813 | 373 ft | 0 kts | 295° |
| 2026-05-05 07:52 | 50.04654 | 8.56814 | 374 ft | 1 kts | 296° |
| 2026-05-05 07:52 | 50.04647 | 8.56835 | 374 ft | 2 kts | 295° |
| 2026-05-05 07:52 | 50.04641 | 8.56856 | 374 ft | 2 kts | 295° |
| 2026-05-05 07:52 | 50.04637 | 8.56869 | 374 ft | 2 kts | 294° |
| 2026-05-05 07:53 | 50.04635 | 8.56893 | 374 ft | 2 kts | 261° |
| 2026-05-05 07:53 | 50.04640 | 8.56915 | 374 ft | 2 kts | 237° |
| 2026-05-05 07:53 | 50.04650 | 8.56932 | 374 ft | 2 kts | 212° |
| 2026-05-05 07:53 | 50.04656 | 8.56937 | 374 ft | 1 kts | 200° |
| 2026-05-05 07:54 | 50.04660 | 8.56939 | 374 ft | 0 kts | 204° |
| 2026-05-05 07:56 | 50.04645 | 8.56929 | 374 ft | 6 kts | 204° |
| 2026-05-05 07:56 | 50.04592 | 8.56905 | 373 ft | 9 kts | 194° |
| 2026-05-05 07:56 | 50.04518 | 8.56878 | 371 ft | 12 kts | 193° |
| 2026-05-05 07:57 | 50.04426 | 8.56851 | 369 ft | 15 kts | 188° |
| 2026-05-05 07:57 | 50.04336 | 8.56824 | 367 ft | 8 kts | 189° |
| 2026-05-05 07:57 | 50.04280 | 8.56874 | 366 ft | 10 kts | 104° |
| 2026-05-05 07:57 | 50.04297 | 8.56988 | 367 ft | 12 kts | 70° |
| 2026-05-05 07:58 | 50.04338 | 8.57160 | 368 ft | 21 kts | 70° |
| 2026-05-05 07:58 | 50.04399 | 8.57421 | 367 ft | 30 kts | 70° |
| 2026-05-05 07:58 | 50.04428 | 8.57571 | 366 ft | 12 kts | 96° |
| 2026-05-05 07:58 | 50.04380 | 8.57659 | 365 ft | 10 kts | 156° |
| 2026-05-05 07:59 | 50.04294 | 8.57700 | 364 ft | 14 kts | 191° |
| 2026-05-05 07:59 | 50.04264 | 8.57653 | 363 ft | 0 kts | 249° |
| 2026-05-05 08:00 | 50.04263 | 8.57650 | 363 ft | 2 kts | 249° |
| 2026-05-05 08:00 | 50.04198 | 8.57379 | 362 ft | 60 kts | 250° |
| 2026-05-05 08:01 | 50.03970 | 8.56423 | 351 ft | 127 kts | 250° |
| 2026-05-05 08:01 | 50.03590 | 8.54836 | 365 ft | 179 kts | 250° |
| 2026-05-05 08:01 | 50.03148 | 8.52995 | 910 ft | 185 kts | 250° |
| 2026-05-05 08:01 | 50.02696 | 8.51159 | 1672 ft | 183 kts | 250° |
| 2026-05-05 08:02 | 50.02072 | 8.49479 | 2280 ft | 181 kts | 230° |
| 2026-05-05 08:02 | 50.01058 | 8.48298 | 2588 ft | 188 kts | 205° |
| 2026-05-05 08:02 | 49.99778 | 8.47785 | 2946 ft | 193 kts | 190° |
| 2026-05-05 08:02 | 49.98446 | 8.47522 | 3366 ft | 194 kts | 188° |
| 2026-05-05 08:03 | 49.97114 | 8.47272 | 3805 ft | 196 kts | 188° |
| 2026-05-05 08:03 | 49.95776 | 8.46895 | 4267 ft | 196 kts | 195° |
| 2026-05-05 08:03 | 49.94477 | 8.46333 | 4730 ft | 196 kts | 197° |
| 2026-05-05 08:03 | 49.93161 | 8.45734 | 5192 ft | 197 kts | 197° |
| 2026-05-05 08:04 | 49.91941 | 8.44814 | 5647 ft | 198 kts | 218° |
| 2026-05-05 08:04 | 49.91055 | 8.43187 | 6122 ft | 200 kts | 240° |
| 2026-05-05 08:04 | 49.90636 | 8.41159 | 6572 ft | 203 kts | 262° |
| 2026-05-05 08:04 | 49.90756 | 8.38961 | 7025 ft | 208 kts | 285° |
| 2026-05-05 08:05 | 49.91421 | 8.36994 | 7472 ft | 212 kts | 308° |
| 2026-05-05 08:05 | 49.92562 | 8.35561 | 7905 ft | 217 kts | 331° |
| 2026-05-05 08:05 | 49.93982 | 8.34571 | 8220 ft | 228 kts | 336° |
| 2026-05-05 08:05 | 49.95500 | 8.33638 | 8479 ft | 241 kts | 336° |
| 2026-05-05 08:06 | 49.97093 | 8.32651 | 8684 ft | 257 kts | 336° |
| 2026-05-05 08:06 | 49.98819 | 8.31556 | 8933 ft | 273 kts | 336° |
| 2026-05-05 08:06 | 50.00626 | 8.30392 | 9219 ft | 288 kts | 335° |
| 2026-05-05 08:06 | 50.02496 | 8.29176 | 9639 ft | 297 kts | 336° |
| 2026-05-05 08:07 | 50.04498 | 8.28277 | 10168 ft | 304 kts | 353° |
| 2026-05-05 08:07 | 50.06636 | 8.28529 | 10477 ft | 318 kts | 15° |
| 2026-05-05 08:07 | 50.08778 | 8.29609 | 10759 ft | 332 kts | 19° |
| 2026-05-05 08:07 | 50.10991 | 8.30833 | 11108 ft | 343 kts | 19° |
| 2026-05-05 08:08 | 50.13245 | 8.32076 | 11663 ft | 347 kts | 19° |
| 2026-05-05 08:08 | 50.15517 | 8.33305 | 12241 ft | 349 kts | 18° |
| 2026-05-05 08:08 | 50.17829 | 8.34538 | 12807 ft | 353 kts | 18° |
| 2026-05-05 08:08 | 50.20169 | 8.35775 | 13363 ft | 356 kts | 18° |
| 2026-05-05 08:09 | 50.22518 | 8.37013 | 13888 ft | 359 kts | 18° |
| 2026-05-05 08:09 | 50.24868 | 8.38249 | 14442 ft | 362 kts | 18° |
| 2026-05-05 08:09 | 50.27265 | 8.39511 | 14957 ft | 365 kts | 18° |
| 2026-05-05 08:09 | 50.29698 | 8.40797 | 15458 ft | 369 kts | 18° |
| 2026-05-05 08:10 | 50.31979 | 8.42028 | 15931 ft | 372 kts | 18° |
| 2026-05-05 08:10 | 50.34430 | 8.43367 | 16419 ft | 375 kts | 18° |
| 2026-05-05 08:10 | 50.35513 | 8.43959 | 16633 ft | 376 kts | 18° |
| 2026-05-05 08:10 | 50.37987 | 8.45313 | 17126 ft | 379 kts | 18° |
| 2026-05-05 08:11 | 50.40514 | 8.46697 | 17588 ft | 382 kts | 18° |
| 2026-05-05 08:11 | 50.41364 | 8.47161 | 17737 ft | 383 kts | 18° |
| 2026-05-05 08:11 | 50.43041 | 8.48079 | 18036 ft | 385 kts | 18° |
| 2026-05-05 08:11 | 50.43811 | 8.48501 | 18177 ft | 386 kts | 18° |
| 2026-05-05 08:12 | 50.46109 | 8.49759 | 18592 ft | 389 kts | 18° |
| 2026-05-05 08:12 | 50.48662 | 8.51078 | 19070 ft | 390 kts | 16° |
| 2026-05-05 08:12 | 50.51277 | 8.52337 | 19547 ft | 392 kts | 15° |
| 2026-05-05 08:12 | 50.53901 | 8.53582 | 20015 ft | 394 kts | 15° |
| 2026-05-05 08:13 | 50.56504 | 8.54820 | 20472 ft | 395 kts | 15° |
| 2026-05-05 08:13 | 50.59140 | 8.56077 | 20908 ft | 397 kts | 15° |
| 2026-05-05 08:13 | 50.61790 | 8.57347 | 21327 ft | 400 kts | 15° |
| 2026-05-05 08:13 | 50.64468 | 8.58633 | 21745 ft | 402 kts | 15° |
| 2026-05-05 08:14 | 50.67141 | 8.59920 | 22133 ft | 404 kts | 15° |
| 2026-05-05 08:14 | 50.69846 | 8.61224 | 22541 ft | 406 kts | 15° |
| 2026-05-05 08:14 | 50.72535 | 8.62522 | 22937 ft | 408 kts | 15° |
| 2026-05-05 08:14 | 50.75240 | 8.63828 | 23334 ft | 409 kts | 15° |
| 2026-05-05 08:15 | 50.77978 | 8.65152 | 23732 ft | 411 kts | 16° |
| 2026-05-05 08:15 | 50.80662 | 8.66775 | 24055 ft | 415 kts | 27° |
| 2026-05-05 08:15 | 50.83053 | 8.69391 | 24376 ft | 419 kts | 41° |
| 2026-05-05 08:15 | 50.84999 | 8.72818 | 24699 ft | 422 kts | 52° |
| 2026-05-05 08:16 | 50.86770 | 8.76545 | 25012 ft | 425 kts | 54° |
| 2026-05-05 08:16 | 50.88515 | 8.80313 | 25315 ft | 428 kts | 53° |
| 2026-05-05 08:16 | 50.90300 | 8.84134 | 25615 ft | 431 kts | 53° |
| 2026-05-05 08:16 | 50.92084 | 8.87906 | 25896 ft | 434 kts | 53° |
| 2026-05-05 08:17 | 50.93907 | 8.91732 | 26164 ft | 437 kts | 53° |
| 2026-05-05 08:17 | 50.95749 | 8.95593 | 26463 ft | 439 kts | 53° |
| 2026-05-05 08:17 | 50.97594 | 8.99462 | 26766 ft | 441 kts | 53° |
| 2026-05-05 08:17 | 50.99434 | 9.03330 | 27011 ft | 445 kts | 53° |
| 2026-05-05 08:18 | 51.01301 | 9.07264 | 27277 ft | 447 kts | 53° |
| 2026-05-05 08:18 | 51.03181 | 9.11235 | 27554 ft | 449 kts | 53° |
| 2026-05-05 08:18 | 51.05050 | 9.15194 | 27833 ft | 451 kts | 53° |
| 2026-05-05 08:18 | 51.06930 | 9.19178 | 28085 ft | 454 kts | 53° |
| 2026-05-05 08:19 | 51.08844 | 9.23165 | 28311 ft | 457 kts | 50° |
| 2026-05-05 08:19 | 51.11156 | 9.26597 | 28497 ft | 458 kts | 34° |
| 2026-05-05 08:19 | 51.13941 | 9.29033 | 28729 ft | 456 kts | 19° |
| 2026-05-05 08:19 | 51.16972 | 9.30412 | 28972 ft | 453 kts | 9° |
| 2026-05-05 08:20 | 51.20030 | 9.31409 | 29203 ft | 455 kts | 7° |
| 2026-05-05 08:20 | 51.23163 | 9.32380 | 29409 ft | 458 kts | 7° |
| 2026-05-05 08:20 | 51.26266 | 9.33387 | 29615 ft | 460 kts | 8° |
| 2026-05-05 08:20 | 51.29403 | 9.34450 | 29848 ft | 462 kts | 8° |
| 2026-05-05 08:21 | 51.32558 | 9.35542 | 30077 ft | 464 kts | 8° |
| 2026-05-05 08:21 | 51.35692 | 9.36632 | 30288 ft | 466 kts | 8° |
| 2026-05-05 08:21 | 51.38874 | 9.37743 | 30486 ft | 468 kts | 8° |
| 2026-05-05 08:21 | 51.42022 | 9.38842 | 30680 ft | 470 kts | 8° |
| 2026-05-05 08:22 | 51.45248 | 9.39971 | 30931 ft | 470 kts | 8° |
| 2026-05-05 08:22 | 51.48401 | 9.41076 | 31246 ft | 469 kts | 8° |
| 2026-05-05 08:22 | 51.51586 | 9.42194 | 31562 ft | 467 kts | 8° |
| 2026-05-05 08:22 | 51.54751 | 9.43309 | 31853 ft | 467 kts | 7° |
| 2026-05-05 08:23 | 51.57917 | 9.44424 | 32138 ft | 466 kts | 7° |
| 2026-05-05 08:23 | 51.61041 | 9.45523 | 32390 ft | 465 kts | 7° |
| 2026-05-05 08:23 | 51.64199 | 9.46637 | 32648 ft | 465 kts | 7° |
| 2026-05-05 08:23 | 51.67366 | 9.47756 | 32900 ft | 465 kts | 7° |
| 2026-05-05 08:24 | 51.70524 | 9.48876 | 33166 ft | 464 kts | 7° |
| 2026-05-05 08:24 | 51.73662 | 9.49986 | 33365 ft | 464 kts | 7° |
| 2026-05-05 08:24 | 51.76782 | 9.51097 | 33571 ft | 465 kts | 7° |
| 2026-05-05 08:24 | 51.79935 | 9.52407 | 33749 ft | 468 kts | 11° |
| 2026-05-05 08:25 | 51.83034 | 9.54022 | 33915 ft | 471 kts | 14° |
| 2026-05-05 08:25 | 51.86075 | 9.55961 | 34077 ft | 475 kts | 18° |
| 2026-05-05 08:25 | 51.89072 | 9.58231 | 34260 ft | 477 kts | 22° |
| 2026-05-05 08:25 | 51.92046 | 9.60678 | 34407 ft | 478 kts | 23° |
| 2026-05-05 08:26 | 51.94997 | 9.63160 | 34579 ft | 479 kts | 22° |
| 2026-05-05 08:26 | 51.97951 | 9.65647 | 34764 ft | 479 kts | 23° |
| 2026-05-05 08:26 | 52.00915 | 9.68133 | 34875 ft | 480 kts | 23° |
| 2026-05-05 08:26 | 52.03892 | 9.70625 | 34876 ft | 481 kts | 23° |
| 2026-05-05 08:27 | 52.09862 | 9.75615 | 34882 ft | 480 kts | 23° |
| 2026-05-05 08:27 | 52.15851 | 9.80631 | 34888 ft | 480 kts | 23° |
| 2026-05-05 08:28 | 52.21778 | 9.85611 | 34895 ft | 479 kts | 23° |
| 2026-05-05 08:28 | 52.27879 | 9.90713 | 34896 ft | 478 kts | 22° |
| 2026-05-05 08:29 | 52.33837 | 9.95609 | 34904 ft | 478 kts | 22° |
| 2026-05-05 08:30 | 52.42723 | 10.02944 | 34904 ft | 479 kts | 22° |
| 2026-05-05 08:30 | 52.48633 | 10.07854 | 34909 ft | 478 kts | 22° |
| 2026-05-05 08:31 | 52.54550 | 10.12787 | 34905 ft | 477 kts | 22° |
| 2026-05-05 08:31 | 52.60422 | 10.17693 | 34907 ft | 476 kts | 22° |
| 2026-05-05 08:32 | 52.66328 | 10.22643 | 34904 ft | 476 kts | 22° |
| 2026-05-05 08:32 | 52.72213 | 10.27593 | 34905 ft | 477 kts | 22° |
| 2026-05-05 08:33 | 52.78111 | 10.32569 | 34902 ft | 477 kts | 22° |
| 2026-05-05 08:33 | 52.83969 | 10.37526 | 34903 ft | 477 kts | 22° |
| 2026-05-05 08:34 | 52.89859 | 10.42525 | 34898 ft | 476 kts | 22° |
| 2026-05-05 08:34 | 52.95746 | 10.47537 | 34896 ft | 476 kts | 22° |
| 2026-05-05 08:35 | 53.01601 | 10.52538 | 34901 ft | 476 kts | 22° |
| 2026-05-05 08:35 | 53.06665 | 10.56871 | 34905 ft | 476 kts | 22° |
| 2026-05-05 08:36 | 53.12538 | 10.61918 | 34894 ft | 475 kts | 22° |
| 2026-05-05 08:36 | 53.18390 | 10.66958 | 34896 ft | 476 kts | 23° |
| 2026-05-05 08:37 | 53.24281 | 10.72051 | 34895 ft | 475 kts | 24° |
| 2026-05-05 08:37 | 53.30106 | 10.77101 | 34898 ft | 475 kts | 24° |
| 2026-05-05 08:38 | 53.35975 | 10.82206 | 34900 ft | 475 kts | 23° |
| 2026-05-05 08:38 | 53.41850 | 10.87331 | 34905 ft | 475 kts | 23° |
| 2026-05-05 08:39 | 53.47687 | 10.92441 | 34895 ft | 474 kts | 23° |
| 2026-05-05 08:39 | 53.53522 | 10.97562 | 34905 ft | 473 kts | 23° |
| 2026-05-05 08:40 | 53.59324 | 11.02670 | 34913 ft | 473 kts | 24° |
| 2026-05-05 08:40 | 53.65148 | 11.07814 | 34919 ft | 473 kts | 24° |
| 2026-05-05 08:41 | 53.70975 | 11.12977 | 34919 ft | 473 kts | 24° |
| 2026-05-05 08:41 | 53.76776 | 11.18133 | 34926 ft | 473 kts | 24° |
| 2026-05-05 08:42 | 53.82614 | 11.23340 | 34935 ft | 472 kts | 24° |
| 2026-05-05 08:42 | 53.87071 | 11.27329 | 34939 ft | 472 kts | 24° |
| 2026-05-05 08:43 | 53.92845 | 11.32508 | 34945 ft | 471 kts | 24° |
| 2026-05-05 08:43 | 53.95737 | 11.35109 | 34779 ft | 465 kts | 24° |
| 2026-05-05 08:43 | 53.98591 | 11.37681 | 34265 ft | 464 kts | 24° |
| 2026-05-05 08:43 | 54.01435 | 11.40240 | 33669 ft | 464 kts | 24° |
| 2026-05-05 08:44 | 54.09974 | 11.47958 | 31776 ft | 466 kts | 25° |
| 2026-05-05 08:44 | 54.12843 | 11.50558 | 31049 ft | 468 kts | 25° |
| 2026-05-05 08:45 | 54.15700 | 11.53153 | 30271 ft | 469 kts | 25° |
| 2026-05-05 08:45 | 54.18560 | 11.55759 | 29666 ft | 466 kts | 25° |
| 2026-05-05 08:45 | 54.21395 | 11.58350 | 29185 ft | 460 kts | 25° |
| 2026-05-05 08:45 | 54.24241 | 11.60954 | 28656 ft | 456 kts | 25° |
| 2026-05-05 08:46 | 54.27018 | 11.63497 | 28118 ft | 452 kts | 25° |
| 2026-05-05 08:46 | 54.29760 | 11.66009 | 27577 ft | 448 kts | 26° |
| 2026-05-05 08:46 | 54.32474 | 11.68499 | 27022 ft | 445 kts | 26° |
| 2026-05-05 08:46 | 54.35206 | 11.71012 | 26486 ft | 441 kts | 26° |
| 2026-05-05 08:47 | 54.37902 | 11.73495 | 25937 ft | 437 kts | 26° |
| 2026-05-05 08:47 | 54.40399 | 11.75798 | 25424 ft | 434 kts | 26° |
| 2026-05-05 08:47 | 54.43034 | 11.78229 | 24893 ft | 431 kts | 26° |
| 2026-05-05 08:47 | 54.45670 | 11.80560 | 24373 ft | 427 kts | 24° |
| 2026-05-05 08:48 | 54.48342 | 11.82705 | 23836 ft | 424 kts | 22° |
| 2026-05-05 08:48 | 54.51012 | 11.84791 | 23317 ft | 421 kts | 22° |
| 2026-05-05 08:48 | 54.53677 | 11.86868 | 22813 ft | 418 kts | 22° |
| 2026-05-05 08:48 | 54.56307 | 11.88929 | 22313 ft | 415 kts | 22° |
| 2026-05-05 08:49 | 54.58904 | 11.90974 | 21835 ft | 412 kts | 22° |
| 2026-05-05 08:49 | 54.61442 | 11.93164 | 21350 ft | 410 kts | 26° |
| 2026-05-05 08:49 | 54.63919 | 11.95676 | 20861 ft | 409 kts | 30° |
| 2026-05-05 08:49 | 54.66274 | 11.98337 | 20387 ft | 407 kts | 32° |
| 2026-05-05 08:50 | 54.68607 | 12.01047 | 19935 ft | 404 kts | 32° |
| 2026-05-05 08:50 | 54.70912 | 12.03739 | 19480 ft | 401 kts | 32° |
| 2026-05-05 08:50 | 54.73217 | 12.06428 | 19015 ft | 399 kts | 31° |
| 2026-05-05 08:50 | 54.75503 | 12.09089 | 18581 ft | 396 kts | 31° |
| 2026-05-05 08:51 | 54.77775 | 12.11731 | 18153 ft | 393 kts | 31° |
| 2026-05-05 08:51 | 54.80049 | 12.14378 | 17730 ft | 390 kts | 31° |
| 2026-05-05 08:51 | 54.82284 | 12.16980 | 17298 ft | 387 kts | 31° |
| 2026-05-05 08:51 | 54.84483 | 12.19542 | 16877 ft | 385 kts | 31° |
| 2026-05-05 08:52 | 54.86721 | 12.22153 | 16441 ft | 382 kts | 31° |
| 2026-05-05 08:52 | 54.88904 | 12.24705 | 16032 ft | 380 kts | 31° |
| 2026-05-05 08:52 | 54.91067 | 12.27238 | 15620 ft | 377 kts | 31° |
| 2026-05-05 08:52 | 54.93238 | 12.29785 | 15190 ft | 375 kts | 31° |
| 2026-05-05 08:53 | 54.95392 | 12.32310 | 14785 ft | 372 kts | 31° |
| 2026-05-05 08:53 | 54.97506 | 12.34788 | 14383 ft | 370 kts | 31° |
| 2026-05-05 08:53 | 54.99638 | 12.37289 | 13958 ft | 367 kts | 31° |
| 2026-05-05 08:53 | 55.01734 | 12.39741 | 13556 ft | 365 kts | 30° |
| 2026-05-05 08:54 | 55.03825 | 12.42178 | 13159 ft | 362 kts | 30° |
| 2026-05-05 08:54 | 55.05924 | 12.44623 | 12764 ft | 360 kts | 30° |
| 2026-05-05 08:54 | 55.07991 | 12.47038 | 12383 ft | 357 kts | 31° |
| 2026-05-05 08:54 | 55.10032 | 12.49428 | 12011 ft | 353 kts | 31° |
| 2026-05-05 08:55 | 55.12079 | 12.51829 | 11627 ft | 350 kts | 31° |
| 2026-05-05 08:55 | 55.14080 | 12.54180 | 11237 ft | 348 kts | 30° |
| 2026-05-05 08:55 | 55.16078 | 12.56528 | 10844 ft | 345 kts | 31° |
| 2026-05-05 08:55 | 55.18116 | 12.58652 | 10447 ft | 341 kts | 23° |
| 2026-05-05 08:56 | 55.20244 | 12.60384 | 10062 ft | 338 kts | 20° |
| 2026-05-05 08:56 | 55.22412 | 12.62056 | 9661 ft | 335 kts | 20° |
| 2026-05-05 08:56 | 55.24509 | 12.63693 | 9415 ft | 328 kts | 20° |
| 2026-05-05 08:56 | 55.26551 | 12.65318 | 9239 ft | 319 kts | 21° |
| 2026-05-05 08:57 | 55.28546 | 12.66929 | 9074 ft | 310 kts | 22° |
| 2026-05-05 08:57 | 55.30457 | 12.68489 | 8908 ft | 302 kts | 22° |
| 2026-05-05 08:57 | 55.32333 | 12.70027 | 8719 ft | 294 kts | 22° |
| 2026-05-05 08:57 | 55.34069 | 12.71455 | 8438 ft | 291 kts | 22° |
| 2026-05-05 08:58 | 55.35890 | 12.72954 | 8114 ft | 289 kts | 22° |
| 2026-05-05 08:58 | 55.37702 | 12.74452 | 7798 ft | 287 kts | 22° |
| 2026-05-05 08:58 | 55.39505 | 12.75945 | 7473 ft | 285 kts | 22° |
| 2026-05-05 08:58 | 55.41171 | 12.77327 | 7178 ft | 283 kts | 22° |
| 2026-05-05 08:59 | 55.42941 | 12.78795 | 6857 ft | 280 kts | 22° |
| 2026-05-05 08:59 | 55.44697 | 12.80253 | 6543 ft | 278 kts | 22° |
| 2026-05-05 08:59 | 55.46444 | 12.81707 | 6219 ft | 276 kts | 23° |
| 2026-05-05 08:59 | 55.48156 | 12.83133 | 5891 ft | 275 kts | 23° |
| 2026-05-05 09:00 | 55.49897 | 12.84586 | 5550 ft | 273 kts | 23° |
| 2026-05-05 09:00 | 55.51608 | 12.86013 | 5209 ft | 272 kts | 23° |
| 2026-05-05 09:00 | 55.53296 | 12.87421 | 4904 ft | 269 kts | 23° |
| 2026-05-05 09:00 | 55.54980 | 12.88829 | 4608 ft | 267 kts | 23° |
| 2026-05-05 09:01 | 55.56650 | 12.90223 | 4312 ft | 264 kts | 22° |
| 2026-05-05 09:01 | 55.58381 | 12.91162 | 4005 ft | 260 kts | 9° |
| 2026-05-05 09:01 | 55.60151 | 12.91641 | 3701 ft | 258 kts | 6° |
| 2026-05-05 09:01 | 55.61944 | 12.92029 | 3380 ft | 257 kts | 5° |
| 2026-05-05 09:02 | 55.63686 | 12.92382 | 3097 ft | 254 kts | 5° |
| 2026-05-05 09:02 | 55.65426 | 12.92728 | 2932 ft | 246 kts | 5° |
| 2026-05-05 09:02 | 55.67092 | 12.93061 | 2746 ft | 237 kts | 5° |
| 2026-05-05 09:02 | 55.68708 | 12.93384 | 2590 ft | 230 kts | 5° |
| 2026-05-05 09:03 | 55.70263 | 12.93286 | 2334 ft | 225 kts | 341° |
| 2026-05-05 09:03 | 55.71583 | 12.91884 | 2066 ft | 222 kts | 320° |
| 2026-05-05 09:03 | 55.72680 | 12.89983 | 1969 ft | 222 kts | 307° |
| 2026-05-05 09:03 | 55.73226 | 12.87418 | 1962 ft | 226 kts | 274° |
| 2026-05-05 09:04 | 55.73018 | 12.84653 | 1978 ft | 228 kts | 258° |
| 2026-05-05 09:04 | 55.72335 | 12.82147 | 1968 ft | 232 kts | 234° |
| 2026-05-05 09:04 | 55.71236 | 12.80127 | 1961 ft | 221 kts | 224° |
| 2026-05-05 09:04 | 55.70075 | 12.78358 | 1921 ft | 220 kts | 223° |
| 2026-05-05 09:05 | 55.68940 | 12.76664 | 1763 ft | 209 kts | 223° |
| 2026-05-05 09:05 | 55.67862 | 12.75012 | 1450 ft | 200 kts | 224° |
| 2026-05-05 09:05 | 55.66847 | 12.73435 | 1158 ft | 190 kts | 224° |
| 2026-05-05 09:05 | 55.65883 | 12.71938 | 885 ft | 179 kts | 223° |
| 2026-05-05 09:06 | 55.64960 | 12.70508 | 698 ft | 170 kts | 223° |
| 2026-05-05 09:06 | 55.64100 | 12.69177 | 452 ft | 158 kts | 223° |
| 2026-05-05 09:06 | 55.63306 | 12.67947 | 242 ft | 150 kts | 223° |
| 2026-05-05 09:06 | 55.62517 | 12.66728 | 66 ft | 148 kts | 224° |
| 2026-05-05 09:07 | 55.61789 | 12.65593 | 15 ft | 122 kts | 222° |
| 2026-05-05 09:07 | 55.61382 | 12.64961 | 15 ft | 41 kts | 223° |
| 2026-05-05 09:07 | 55.61260 | 12.64643 | 15 ft | 29 kts | 249° |
| 2026-05-05 09:07 | 55.61197 | 12.64328 | 15 ft | 19 kts | 251° |
| 2026-05-05 09:08 | 55.61201 | 12.64134 | 16 ft | 13 kts | 307° |
| 2026-05-05 09:08 | 55.61260 | 12.64107 | 16 ft | 9 kts | 9° |
| 2026-05-05 09:08 | 55.61322 | 12.64167 | 15 ft | 11 kts | 38° |
| 2026-05-05 09:08 | 55.61390 | 12.64240 | 16 ft | 11 kts | 32° |
| 2026-05-05 09:09 | 55.61460 | 12.64318 | 15 ft | 12 kts | 33° |
| 2026-05-05 09:09 | 55.61539 | 12.64409 | 15 ft | 14 kts | 34° |
| 2026-05-05 09:09 | 55.61623 | 12.64506 | 15 ft | 14 kts | 33° |
| 2026-05-05 09:09 | 55.61707 | 12.64572 | 15 ft | 12 kts | 356° |
| 2026-05-05 09:10 | 55.61795 | 12.64541 | 15 ft | 13 kts | 348° |
| 2026-05-05 09:10 | 55.61889 | 12.64510 | 15 ft | 13 kts | 350° |
| 2026-05-05 09:10 | 55.61986 | 12.64479 | 15 ft | 14 kts | 349° |
| 2026-05-05 09:10 | 55.62086 | 12.64445 | 15 ft | 14 kts | 349° |
| 2026-05-05 09:11 | 55.62189 | 12.64411 | 15 ft | 15 kts | 350° |
| 2026-05-05 09:11 | 55.62295 | 12.64405 | 15 ft | 15 kts | 12° |
| 2026-05-05 09:11 | 55.62399 | 12.64451 | 15 ft | 14 kts | 358° |
| 2026-05-05 09:11 | 55.62471 | 12.64334 | 15 ft | 14 kts | 307° |
| 2026-05-05 09:12 | 55.62517 | 12.64219 | 16 ft | 0 kts | 304° |
| 2026-05-05 09:12 | 55.62519 | 12.64215 | 16 ft | 0 kts | 304° |
| 2026-05-05 09:12 | 55.62535 | 12.64174 | 16 ft | 8 kts | 304° |
| 2026-05-05 09:12 | 55.62576 | 12.64060 | 15 ft | 12 kts | 303° |
| 2026-05-05 09:13 | 55.62626 | 12.63924 | 15 ft | 12 kts | 303° |
| 2026-05-05 09:13 | 55.62688 | 12.63868 | 15 ft | 11 kts | 22° |
| 2026-05-05 09:13 | 55.62759 | 12.63940 | 15 ft | 10 kts | 34° |
| 2026-05-05 09:13 | 55.62814 | 12.64021 | 16 ft | 8 kts | 54° |
| 2026-05-05 09:14 | 55.62843 | 12.64058 | 16 ft | 3 kts | 6° |
| 2026-05-05 09:14 | 55.62861 | 12.64063 | 16 ft | 1 kts | 10° |
| 2026-05-05 09:14 | 55.62870 | 12.64066 | 16 ft | 0 kts | 10° |